< Typhoon 198703 1987 Season Typhoon 198705 >
Typhoon 198704 (SPERRY)
General InformationTrack Information on Google MapsDetailed Wind InformationList of All Images || Disaster Info.ResourceGoogle EarthGE AnimationAtom FeedGeoJSON
Detalied Best Track (Time Zone = UTC)
Year Month Day Hour Lat. Long. Pressure (hPa) Wind (kt) Class Image Chart
1987 6 26 00 11.0 142.5 1008 0 2 Image Chart
1987 6 26 06 11.9 140.5 1006 0 2 Image Chart
1987 6 26 12 12.4 138.5 1006 0 2 Image Chart
1987 6 26 18 12.2 137.5 1002 0 2 Image Chart
1987 6 27 00 12.5 137.5 1002 0 2 Image Chart
1987 6 27 06 13.1 136.6 996 40 3 Image Chart
1987 6 27 12 13.6 136.0 992 45 3 Image Chart
1987 6 27 18 13.8 135.8 985 50 4 Image Chart
1987 6 28 00 14.4 135.6 985 55 4 Image Chart
1987 6 28 06 15.1 135.3 985 60 4 Image Chart
1987 6 28 12 15.8 134.8 985 65 5 Image Chart
1987 6 28 18 16.5 134.4 985 65 5 Image Chart
1987 6 29 00 17.3 133.9 985 65 5 Image Chart
1987 6 29 06 18.3 133.4 985 65 5 Image Chart
1987 6 29 12 19.5 132.9 980 65 5 Image Chart
1987 6 29 18 20.8 132.2 980 65 5 Image Chart
1987 6 30 00 22.0 131.6 985 60 4 Image Chart
1987 6 30 06 23.3 131.3 985 60 4 Image Chart
1987 6 30 12 25.0 131.4 985 60 4 Image Chart
1987 6 30 18 26.6 131.7 990 50 4 Image Chart
1987 7 1 00 28.3 132.6 990 45 3 Image Chart
1987 7 1 06 29.8 134.7 992 45 3 Image Chart
1987 7 1 12 30.8 137.6 992 45 3 Image Chart
1987 7 1 18 31.6 140.9 992 45 3 Image Chart
1987 7 2 00 32.3 144.3 994 0 6 Image Chart
1987 7 2 06 32.6 146.4 996 0 6 Image Chart
1987 7 2 12 32.8 148.2 998 0 6 Image Chart
1987 7 2 18 32.4 150.0 1000 0 6 Image Chart
1987 7 3 00 32.0 151.8 1002 0 6 Image Chart
1987 7 3 06 31.6 153.4 1002 0 6 Image Chart
1987 7 3 12 31.5 155.0 1002 0 6 Image Chart
1987 7 3 18 31.5 156.0 1002 0 6 Image Chart
1987 7 4 00 31.7 156.9 1004 0 6 Image Chart
1987 7 4 06 31.8 157.8 1004 0 6 Image Chart
1987 7 4 12 32.0 158.5 1004 0 6 Image Chart
1987 7 4 18 32.4 159.4 1004 0 6 Image Chart
1987 7 5 00 32.8 160.1 1004 0 6 Image Chart
Japan Meteorological Agency Best Track Data | Correction Date : 1992-10-21
< Typhoon 198703 1987 Season Typhoon 198705 >

Help